Time;durP1;ratioP1;P1;durP2;ratioP2;P2;SDS_P1;SDS_P2;PMS_P1;PMS_P2;Temp;Humidity;BMP_temperature;BMP_pressure;BME280_temperature;BME280_humidity;BME280_pressure;Samples;Min_cycle;Max_cycle;Signal;HPM_P1;HPM_P2
2023/03/22 00:00:45;;;;;;;45.47;26.40;;;16.40;1.00;;;;;;5120298;27;20023;-58
2023/03/22 00:03:11;;;;;;;42.58;25.70;;;16.40;1.00;;;;;;5122638;27;20065;-59
2023/03/22 00:05:36;;;;;;;37.03;24.27;;;16.30;1.00;;;;;;5111245;27;20069;-59
2023/03/22 00:08:05;;;;;;;38.65;25.67;;;16.30;1.00;;;;;;5100933;28;20366;-58
2023/03/22 00:10:33;;;;;;;40.80;25.80;;;16.30;1.00;;;;;;5113847;27;20027;-59
2023/03/22 00:12:59;;;;;;;39.15;25.73;;;16.30;1.00;;;;;;5099850;27;20469;-58
2023/03/22 00:15:25;;;;;;;41.55;27.20;;;16.30;1.00;;;;;;5120530;27;20074;-58
2023/03/22 00:17:51;;;;;;;40.72;27.00;;;16.20;1.00;;;;;;5098542;27;20484;-58
2023/03/22 00:20:18;;;;;;;36.90;26.00;;;16.20;1.00;;;;;;5111425;27;20062;-59
2023/03/22 00:22:44;;;;;;;37.58;25.65;;;16.20;1.00;;;;;;5114201;28;20036;-58
2023/03/22 00:25:10;;;;;;;37.05;25.33;;;16.20;1.00;;;;;;5120129;27;20031;-58
2023/03/22 00:27:36;;;;;;;36.60;25.80;;;16.20;1.00;;;;;;5117575;27;20492;-57
2023/03/22 00:30:04;;;;;;;41.15;25.65;;;16.20;1.00;;;;;;5105574;27;20047;-57
2023/03/22 00:32:33;;;;;;;39.17;25.20;;;16.20;1.00;;;;;;5113499;28;20020;-57
2023/03/22 00:35:00;;;;;;;39.25;26.25;;;16.30;1.00;;;;;;5111851;28;20393;-58
2023/03/22 00:37:32;;;;;;;39.47;26.13;;;16.30;1.00;;;;;;5113627;28;20046;-57
2023/03/22 00:39:59;;;;;;;39.47;26.48;;;16.20;1.00;;;;;;5117228;27;20019;-57
2023/03/22 00:42:24;;;;;;;38.70;27.42;;;16.20;1.00;;;;;;5115661;28;20024;-58
2023/03/22 00:44:50;;;;;;;41.22;28.50;;;16.20;1.00;;;;;;5116037;27;20089;-58
2023/03/22 00:47:16;;;;;;;44.50;28.85;;;16.20;1.00;;;;;;5117354;28;20027;-57
2023/03/22 00:49:41;;;;;;;44.65;30.58;;;16.20;1.00;;;;;;5112720;28;20057;-57
2023/03/22 00:52:07;;;;;;;39.22;28.65;;;16.20;1.00;;;;;;5113649;28;20465;-58
2023/03/22 00:54:33;;;;;;;46.80;30.27;;;16.20;1.00;;;;;;5113423;28;20084;-57
2023/03/22 00:56:58;;;;;;;47.63;30.65;;;16.20;1.00;;;;;;5113287;28;20076;-58
2023/03/22 00:59:24;;;;;;;45.85;30.33;;;16.20;1.00;;;;;;5093994;28;20055;-57
2023/03/22 01:01:49;;;;;;;41.85;29.42;;;16.10;1.00;;;;;;5123671;28;20016;-57
2023/03/22 01:04:24;;;;;;;46.30;31.23;;;16.10;1.00;;;;;;5113630;28;20110;-57
2023/03/22 01:07:00;;;;;;;47.40;33.22;;;16.10;1.00;;;;;;5113535;28;20116;-56
2023/03/22 01:09:30;;;;;;;50.65;34.78;;;16.10;1.00;;;;;;5095229;28;20115;-57
2023/03/22 01:11:57;;;;;;;53.20;37.35;;;16.10;1.00;;;;;;5107351;28;20069;-58
2023/03/22 01:14:24;;;;;;;60.58;41.03;;;16.00;1.00;;;;;;5089583;28;20019;-57
2023/03/22 01:16:53;;;;;;;63.50;40.30;;;16.00;1.00;;;;;;5109754;28;20515;-57
2023/03/22 01:19:19;;;;;;;54.20;40.17;;;16.00;1.00;;;;;;5081199;28;20024;-57
2023/03/22 01:21:45;;;;;;;57.83;42.10;;;16.00;1.00;;;;;;5114742;28;20036;-56
2023/03/22 01:24:11;;;;;;;56.53;41.80;;;16.00;1.00;;;;;;5112104;28;20038;-56
2023/03/22 01:26:37;;;;;;;60.95;40.78;;;16.00;1.00;;;;;;5115939;28;20106;-57
2023/03/22 01:29:03;;;;;;;60.22;41.95;;;16.00;1.00;;;;;;5117060;27;20084;-56
2023/03/22 01:31:29;;;;;;;59.08;41.28;;;16.00;1.00;;;;;;5084498;28;20035;-55
2023/03/22 01:33:55;;;;;;;58.15;42.10;;;15.90;1.00;;;;;;5067881;28;20047;-56
2023/03/22 01:36:20;;;;;;;58.38;42.15;;;15.90;1.00;;;;;;5118314;27;20035;-56
2023/03/22 01:38:46;;;;;;;63.42;44.20;;;15.90;1.00;;;;;;5116592;28;20020;-57
2023/03/22 01:41:12;;;;;;;59.03;42.85;;;15.90;1.00;;;;;;5118735;27;20035;-54
2023/03/22 01:43:37;;;;;;;59.88;42.47;;;15.80;1.00;;;;;;5124350;27;20024;-56
2023/03/22 01:46:03;;;;;;;61.95;44.17;;;15.80;1.00;;;;;;5128644;27;20101;-56
2023/03/22 01:48:32;;;;;;;59.38;42.97;;;15.80;1.00;;;;;;5102366;28;20100;-56
2023/03/22 01:51:05;;;;;;;58.75;44.58;;;15.80;1.00;;;;;;5120414;27;20024;-58
2023/03/22 01:53:39;;;;;;;59.53;45.00;;;15.70;1.00;;;;;;5106765;27;20018;-57
2023/03/22 01:56:06;;;;;;;58.15;45.13;;;15.70;1.00;;;;;;5102854;28;20040;-56
2023/03/22 01:58:34;;;;;;;63.45;45.05;;;15.70;1.00;;;;;;5120788;27;20056;-57
2023/03/22 02:01:01;;;;;;;60.42;44.22;;;15.70;1.00;;;;;;5117246;27;20517;-57
2023/03/22 02:03:54;;;;;;;67.57;44.55;;;15.70;1.00;;;;;;5115255;27;20491;-57
2023/03/22 02:06:21;;;;;;;63.90;47.13;;;15.70;1.00;;;;;;5102183;28;20483;-55
2023/03/22 02:08:48;;;;;;;60.30;43.90;;;15.70;1.00;;;;;;5115929;27;20019;-57
2023/03/22 02:11:17;;;;;;;58.47;43.65;;;15.70;1.00;;;;;;5116227;28;20488;-56
2023/03/22 02:14:09;;;;;;;59.22;44.65;;;15.70;1.00;;;;;;5116438;27;20034;-57
2023/03/22 02:16:48;;;;;;;65.38;46.20;;;15.70;1.00;;;;;;5064013;28;20039;-57
2023/03/22 02:19:41;;;;;;;62.75;45.22;;;15.70;1.00;;;;;;5112866;28;20033;-57
2023/03/22 02:22:13;;;;;;;60.65;46.05;;;15.70;1.00;;;;;;5105444;28;20065;-56
2023/03/22 02:25:03;;;;;;;67.57;47.50;;;15.70;1.00;;;;;;5101629;27;20024;-58
2023/03/22 02:27:51;;;;;;;64.47;48.83;;;15.60;1.00;;;;;;5131127;27;20027;-56
2023/03/22 02:30:39;;;;;;;65.78;47.97;;;15.60;1.00;;;;;;5118123;27;20100;-57
2023/03/22 02:33:10;;;;;;;64.13;46.72;;;15.70;1.00;;;;;;5118872;27;20433;-57
2023/03/22 02:35:48;;;;;;;65.72;46.85;;;15.70;1.00;;;;;;5111096;27;20495;-56
2023/03/22 02:38:20;;;;;;;63.88;48.00;;;15.60;1.00;;;;;;5108059;28;20480;-56
2023/03/22 02:41:12;;;;;;;63.58;46.70;;;15.60;1.00;;;;;;5107616;27;20023;-57
2023/03/22 02:44:09;;;;;;;66.43;45.90;;;15.60;1.00;;;;;;5047843;27;20462;-58
2023/03/22 02:46:47;;;;;;;62.60;45.13;;;15.60;1.00;;;;;;5114144;28;20032;-57
2023/03/22 02:49:15;;;;;;;68.53;45.75;;;15.50;1.00;;;;;;5113629;28;20040;-57
2023/03/22 02:52:02;;;;;;;63.15;46.53;;;15.50;1.00;;;;;;5119423;27;20080;-57
2023/03/22 02:54:46;;;;;;;60.70;46.20;;;15.50;1.00;;;;;;5121506;27;20031;-57
2023/03/22 02:57:22;;;;;;;62.95;46.47;;;15.50;1.00;;;;;;5118761;27;20475;-57
2023/03/22 02:59:48;;;;;;;60.30;45.58;;;15.50;1.00;;;;;;5110166;27;20028;-58
2023/03/22 03:02:17;;;;;;;64.18;44.47;;;15.50;1.00;;;;;;5116461;27;20030;-58
2023/03/22 03:04:49;;;;;;;58.78;44.58;;;15.40;1.00;;;;;;5113626;28;20450;-57
2023/03/22 03:07:20;;;;;;;67.28;45.83;;;15.50;1.00;;;;;;5114431;28;20061;-58
2023/03/22 03:09:47;;;;;;;63.60;46.78;;;15.40;1.00;;;;;;5114361;27;20023;-57
2023/03/22 03:12:22;;;;;;;59.83;45.05;;;15.40;1.00;;;;;;5114479;28;20028;-58
2023/03/22 03:14:48;;;;;;;58.78;42.92;;;15.40;1.00;;;;;;5116408;27;20039;-58
2023/03/22 03:17:27;;;;;;;64.03;45.90;;;15.30;1.00;;;;;;5117184;27;20045;-58
2023/03/22 03:20:21;;;;;;;64.80;45.47;;;15.30;1.00;;;;;;5102370;27;20032;-58
2023/03/22 03:23:24;;;;;;;64.88;44.08;;;15.30;1.00;;;;;;5053494;28;20424;-58
2023/03/22 03:26:28;;;;;;;61.45;43.95;;;15.20;1.00;;;;;;5121417;27;20507;-58
2023/03/22 03:29:25;;;;;;;61.03;41.92;;;15.30;1.00;;;;;;5101904;27;20023;-58
2023/03/22 03:32:00;;;;;;;56.35;43.35;;;15.30;1.00;;;;;;5125425;27;20495;-58
2023/03/22 03:34:32;;;;;;;57.58;42.30;;;15.20;1.00;;;;;;5119685;27;20058;-58
2023/03/22 03:37:07;;;;;;;60.55;43.97;;;15.20;1.00;;;;;;5114530;28;20027;-58
2023/03/22 03:39:35;;;;;;;;;;;15.20;1.00;;;;;;5121043;27;20026;-58
2023/03/22 03:42:02;;;;;;;58.70;41.72;;;15.20;1.00;;;;;;5114791;28;20379;-58
2023/03/22 03:44:30;;;;;;;55.80;41.10;;;15.20;1.00;;;;;;5121076;27;20027;-57
2023/03/22 03:46:57;;;;;;;55.78;41.78;;;15.20;1.00;;;;;;5116185;27;20441;-57
2023/03/22 03:49:22;;;;;;;53.90;41.67;;;15.20;1.00;;;;;;5122604;27;20103;-56
2023/03/22 03:51:51;;;;;;;54.20;41.65;;;15.20;1.00;;;;;;5116775;27;20047;-58
2023/03/22 03:54:17;;;;;;;56.70;40.40;;;15.20;1.00;;;;;;5119480;27;20358;-58
2023/03/22 03:56:43;;;;;;;57.25;41.10;;;15.10;1.00;;;;;;5112286;27;20043;-58
2023/03/22 03:59:09;;;;;;;55.42;40.78;;;15.10;1.00;;;;;;5122089;27;20111;-59
2023/03/22 04:01:35;;;;;;;55.15;40.92;;;15.00;1.00;;;;;;5116645;27;20031;-58
2023/03/22 04:04:01;;;;;;;62.63;43.65;;;15.00;1.00;;;;;;5109270;28;20420;-58
2023/03/22 04:06:26;;;;;;;59.92;41.42;;;15.00;1.00;;;;;;5112965;27;20024;-58
2023/03/22 04:08:53;;;;;;;57.47;41.80;;;15.00;1.00;;;;;;5102445;28;20073;-57
2023/03/22 04:11:19;;;;;;;57.45;41.33;;;15.00;1.00;;;;;;5117761;27;20428;-58
2023/03/22 04:13:45;;;;;;;54.25;41.90;;;15.00;1.00;;;;;;5113965;28;20392;-58
2023/03/22 04:16:10;;;;;;;55.78;41.65;;;15.00;1.00;;;;;;5102312;27;20028;-58
2023/03/22 04:18:37;;;;;;;60.10;43.58;;;14.90;1.00;;;;;;5094246;27;20039;-58
2023/03/22 04:21:04;;;;;;;57.75;42.60;;;14.90;1.00;;;;;;5114384;27;20113;-58
2023/03/22 04:23:31;;;;;;;55.83;40.75;;;14.90;1.00;;;;;;5116297;27;20042;-58
2023/03/22 04:25:58;;;;;;;58.58;42.78;;;14.90;1.00;;;;;;5110565;27;20078;-58
2023/03/22 04:28:25;;;;;;;56.78;42.17;;;14.90;1.00;;;;;;5113776;28;20106;-58
2023/03/22 04:30:51;;;;;;;58.60;42.47;;;14.90;1.00;;;;;;5112584;28;20084;-58
2023/03/22 04:33:18;;;;;;;62.72;44.10;;;14.90;1.00;;;;;;5124641;27;20043;-58
2023/03/22 04:35:47;;;;;;;54.05;41.53;;;14.90;1.00;;;;;;5110619;27;20031;-58
2023/03/22 04:38:13;;;;;;;56.40;41.35;;;14.80;1.00;;;;;;5120125;27;20034;-58
2023/03/22 04:40:45;;;;;;;59.47;42.78;;;14.80;1.00;;;;;;5093452;28;20370;-58
2023/03/22 04:43:12;;;;;;;55.55;41.08;;;14.80;1.00;;;;;;5104533;28;20028;-58
2023/03/22 04:45:38;;;;;;;55.80;42.22;;;14.80;1.00;;;;;;5115901;28;20570;-58
2023/03/22 04:48:06;;;;;;;61.13;42.90;;;14.80;1.00;;;;;;5113494;28;20027;-58
2023/03/22 04:50:32;;;;;;;59.58;42.13;;;14.80;1.00;;;;;;5116663;27;20027;-58
2023/03/22 04:52:58;;;;;;;57.13;42.42;;;14.80;1.00;;;;;;5118740;28;20487;-58
2023/03/22 04:55:23;;;;;;;55.95;42.72;;;14.80;1.00;;;;;;5115882;28;20066;-58
2023/03/22 04:57:49;;;;;;;55.28;41.65;;;14.70;1.00;;;;;;5113360;28;20518;-58
2023/03/22 05:00:17;;;;;;;58.75;40.95;;;14.80;1.00;;;;;;5117224;28;20050;-57
2023/03/22 05:02:43;;;;;;;55.30;41.45;;;14.70;1.00;;;;;;5117003;28;20420;-58
2023/03/22 05:05:08;;;;;;;57.33;42.63;;;14.60;1.00;;;;;;5119034;27;20035;-58
2023/03/22 05:07:35;;;;;;;56.88;42.28;;;14.70;1.00;;;;;;5102249;27;20080;-58
2023/03/22 05:10:00;;;;;;;62.05;42.42;;;14.70;1.00;;;;;;5129314;27;20030;-58
2023/03/22 05:12:26;;;;;;;56.25;40.15;;;14.60;1.00;;;;;;5124440;27;20420;-58
2023/03/22 05:14:52;;;;;;;58.15;41.83;;;14.60;1.00;;;;;;5117108;27;20035;-58
2023/03/22 05:17:17;;;;;;;54.95;40.75;;;14.60;1.00;;;;;;5117761;28;20024;-58
2023/03/22 05:19:43;;;;;;;60.47;42.17;;;14.60;1.00;;;;;;5121040;27;20024;-58
2023/03/22 05:22:10;;;;;;;59.65;41.78;;;14.60;1.00;;;;;;5110344;28;20016;-58
2023/03/22 05:24:36;;;;;;;60.75;42.75;;;14.60;1.00;;;;;;5123686;27;20031;-59
2023/03/22 05:27:02;;;;;;;59.45;41.47;;;14.50;1.00;;;;;;5121067;27;20433;-58
2023/03/22 05:29:28;;;;;;;58.95;40.20;;;14.50;1.00;;;;;;5110179;28;20027;-58
2023/03/22 05:31:54;;;;;;;58.13;41.53;;;14.50;1.00;;;;;;5126470;27;20028;-59
2023/03/22 05:34:20;;;;;;;60.83;42.97;;;14.50;1.00;;;;;;5122031;27;20042;-58
2023/03/22 05:36:46;;;;;;;63.20;43.45;;;14.50;1.00;;;;;;5118871;27;20020;-58
2023/03/22 05:39:14;;;;;;;54.53;39.95;;;14.50;1.00;;;;;;5116168;27;20461;-58
2023/03/22 05:41:40;;;;;;;59.45;41.72;;;14.50;1.00;;;;;;5117905;27;20040;-58
2023/03/22 05:44:05;;;;;;;56.47;41.15;;;14.50;1.00;;;;;;5115647;27;20019;-58
2023/03/22 05:46:31;;;;;;;54.55;41.10;;;14.50;1.00;;;;;;5118676;27;20431;-59
2023/03/22 05:48:57;;;;;;;61.22;41.53;;;14.50;1.00;;;;;;5100683;27;20380;-59
2023/03/22 05:51:24;;;;;;;58.20;42.90;;;14.50;1.00;;;;;;5120406;27;20047;-58
2023/03/22 05:53:52;;;;;;;56.80;40.97;;;14.50;1.00;;;;;;5108054;27;20021;-58
2023/03/22 05:56:20;;;;;;;57.35;41.08;;;14.50;1.00;;;;;;5132303;27;20076;-58
2023/03/22 05:58:46;;;;;;;65.15;43.75;;;14.50;1.00;;;;;;5116353;28;20020;-58
2023/03/22 06:01:15;;;;;;;60.00;42.88;;;14.50;1.00;;;;;;5125975;27;20035;-58
2023/03/22 06:03:41;;;;;;;56.72;42.78;;;14.50;1.00;;;;;;5116736;27;20032;-58
2023/03/22 06:06:09;;;;;;;60.75;42.38;;;14.60;1.00;;;;;;5125874;27;20038;-58
2023/03/22 06:08:36;;;;;;;58.65;41.42;;;14.50;1.00;;;;;;5116096;27;20017;-58
2023/03/22 06:11:01;;;;;;;59.10;41.40;;;14.60;1.00;;;;;;5122668;27;20157;-58
2023/03/22 06:13:27;;;;;;;63.17;44.80;;;14.60;1.00;;;;;;5114551;28;20449;-59
2023/03/22 06:15:53;;;;;;;58.25;43.13;;;14.60;1.00;;;;;;5128311;27;20035;-58
2023/03/22 06:18:18;;;;;;;55.30;42.03;;;14.60;1.00;;;;;;5116326;28;20073;-59
2023/03/22 06:20:44;;;;;;;64.65;43.78;;;14.60;1.00;;;;;;5129398;27;20038;-59
2023/03/22 06:23:09;;;;;;;60.45;42.15;;;14.60;1.00;;;;;;5116072;28;20098;-59
2023/03/22 06:25:35;;;;;;;55.70;39.67;;;14.70;1.00;;;;;;5113953;27;20088;-59
2023/03/22 06:28:01;;;;;;;60.13;43.00;;;14.70;1.00;;;;;;5115841;28;20418;-59
2023/03/22 06:30:27;;;;;;;58.20;41.95;;;14.70;1.00;;;;;;5116815;27;20027;-59
2023/03/22 06:32:53;;;;;;;61.75;42.67;;;14.70;1.00;;;;;;5115571;28;20032;-59
2023/03/22 06:35:19;;;;;;;57.33;42.22;;;14.70;1.00;;;;;;5116040;27;20047;-59
2023/03/22 06:37:45;;;;;;;58.70;42.92;;;14.70;1.00;;;;;;5120448;27;20389;-58
2023/03/22 06:40:11;;;;;;;60.92;44.15;;;14.80;1.00;;;;;;5114281;27;20027;-58
2023/03/22 06:42:36;;;;;;;62.63;43.35;;;14.80;1.00;;;;;;5116656;27;20035;-59
2023/03/22 06:45:03;;;;;;;58.90;42.42;;;14.80;1.00;;;;;;5129521;27;20062;-58
2023/03/22 06:47:29;;;;;;;62.95;44.15;;;14.80;1.00;;;;;;5120722;27;20083;-58
2023/03/22 06:49:54;;;;;;;64.90;45.28;;;14.80;1.00;;;;;;5123221;27;20111;-59
2023/03/22 06:52:20;;;;;;;61.92;42.80;;;14.90;1.00;;;;;;5115751;28;20019;-59
2023/03/22 06:54:46;;;;;;;58.53;42.58;;;14.90;1.00;;;;;;5125132;27;20040;-59
2023/03/22 06:57:11;;;;;;;60.00;42.65;;;14.90;1.00;;;;;;5115590;28;20034;-59
2023/03/22 06:59:37;;;;;;;60.95;42.42;;;14.90;1.00;;;;;;5111901;27;20028;-59
2023/03/22 07:02:03;;;;;;;55.88;42.10;;;15.00;1.00;;;;;;5124002;27;20399;-59
2023/03/22 07:04:29;;;;;;;61.95;45.25;;;14.90;1.00;;;;;;5121541;27;20024;-59
2023/03/22 07:06:55;;;;;;;66.30;47.20;;;14.90;1.00;;;;;;5113643;27;20034;-59
2023/03/22 07:09:22;;;;;;;58.17;43.95;;;15.00;1.00;;;;;;5095999;28;20024;-59
2023/03/22 07:11:48;;;;;;;65.60;45.55;;;15.00;1.00;;;;;;5114687;27;20571;-59
2023/03/22 07:14:14;;;;;;;57.63;43.92;;;15.00;1.00;;;;;;5126457;27;20120;-59
2023/03/22 07:16:39;;;;;;;63.03;45.50;;;15.10;1.00;;;;;;5116363;27;20423;-60
2023/03/22 07:19:05;;;;;;;62.60;45.42;;;15.10;1.00;;;;;;5126682;27;20020;-60
2023/03/22 07:21:31;;;;;;;61.20;46.05;;;15.10;1.00;;;;;;5114178;27;20498;-60
2023/03/22 07:23:57;;;;;;;63.78;47.30;;;15.10;1.00;;;;;;5094527;28;20028;-60
2023/03/22 07:26:24;;;;;;;70.03;50.10;;;15.10;1.00;;;;;;5112741;27;20388;-60
2023/03/22 07:28:51;;;;;;;66.90;47.88;;;15.10;1.00;;;;;;5111883;27;20027;-60
2023/03/22 07:31:16;;;;;;;66.88;48.60;;;15.20;1.00;;;;;;5111842;28;20119;-60
2023/03/22 07:33:42;;;;;;;74.60;49.80;;;15.20;1.00;;;;;;5120879;27;20127;-60
2023/03/22 07:36:09;;;;;;;68.80;49.03;;;15.20;1.00;;;;;;5114455;28;20067;-60
2023/03/22 07:38:35;;;;;;;65.85;49.55;;;15.20;1.00;;;;;;5110271;27;20485;-59
2023/03/22 07:41:01;;;;;;;67.85;48.13;;;15.20;1.00;;;;;;5112528;28;20036;-60
2023/03/22 07:43:27;;;;;;;66.70;46.58;;;15.30;1.00;;;;;;5109473;27;20039;-60
2023/03/22 07:45:52;;;;;;;69.75;49.50;;;15.30;1.00;;;;;;5104244;27;20139;-60
2023/03/22 07:48:20;;;;;;;67.32;47.42;;;15.30;1.00;;;;;;5130876;27;20054;-50
2023/03/22 07:50:46;;;;;;;66.30;47.95;;;15.40;1.00;;;;;;5123190;27;20032;-61
2023/03/22 07:53:12;;;;;;;71.20;48.35;;;15.40;1.00;;;;;;5111310;27;20683;-58
2023/03/22 07:55:41;;;;;;;68.95;48.40;;;15.40;1.00;;;;;;5112780;27;20058;-50
2023/03/22 07:58:06;;;;;;;68.72;48.55;;;15.50;1.00;;;;;;5116812;27;20028;-59
2023/03/22 08:00:32;;;;;;;66.22;48.58;;;15.50;1.00;;;;;;5103358;28;20023;-53
2023/03/22 08:02:58;;;;;;;69.47;46.42;;;15.50;1.00;;;;;;5114570;27;20465;-59
2023/03/22 08:05:24;;;;;;;69.03;51.03;;;15.60;1.00;;;;;;5108813;27;20028;-50
2023/03/22 08:07:51;;;;;;;62.38;45.65;;;15.60;1.00;;;;;;5118362;27;20036;-48
2023/03/22 08:10:17;;;;;;;72.40;51.03;;;15.60;1.00;;;;;;5099415;28;20062;-54
2023/03/22 08:12:43;;;;;;;68.85;50.47;;;15.60;1.00;;;;;;5105316;27;20047;-55
2023/03/22 08:15:09;;;;;;;72.50;50.45;;;15.60;1.00;;;;;;5117079;27;20031;-61
2023/03/22 08:17:35;;;;;;;70.68;50.78;;;15.70;1.00;;;;;;5124386;27;20023;-50
2023/03/22 08:20:06;;;;;;;75.90;50.42;;;15.70;1.00;;;;;;5115850;27;20035;-50
2023/03/22 08:22:31;;;;;;;70.40;50.20;;;15.70;1.00;;;;;;5105569;28;20028;-59
2023/03/22 08:24:57;;;;;;;65.68;50.47;;;15.80;1.00;;;;;;5094206;28;20477;-47
2023/03/22 08:27:22;;;;;;;70.57;51.08;;;15.80;1.00;;;;;;5095425;28;20038;-51
2023/03/22 08:29:51;;;;;;;70.03;49.42;;;15.80;1.00;;;;;;5112583;28;20124;-60
2023/03/22 08:32:17;;;;;;;67.15;49.08;;;15.90;1.00;;;;;;5097172;28;20084;-48
2023/03/22 08:34:43;;;;;;;73.22;49.83;;;15.90;1.00;;;;;;5113025;27;20506;-53
2023/03/22 08:37:10;;;;;;;68.75;51.17;;;15.90;1.00;;;;;;5109001;28;20023;-50
2023/03/22 08:39:36;;;;;;;71.47;52.20;;;16.00;1.00;;;;;;5112326;28;20032;-49
2023/03/22 08:42:03;;;;;;;73.93;50.65;;;16.00;1.00;;;;;;5110279;28;20100;-48
2023/03/22 08:44:29;;;;;;;64.38;48.20;;;16.00;1.00;;;;;;5103253;28;20069;-46
2023/03/22 08:46:55;;;;;;;70.13;50.60;;;16.10;1.00;;;;;;5112477;28;20027;-51
2023/03/22 08:49:21;;;;;;;71.30;50.90;;;16.10;1.00;;;;;;5112440;28;20035;-50
2023/03/22 08:51:48;;;;;;;68.15;50.55;;;16.10;1.00;;;;;;5109856;28;20194;-52
2023/03/22 08:54:13;;;;;;;68.43;48.22;;;16.20;1.00;;;;;;5112171;28;20118;-49
2023/03/22 08:56:40;;;;;;;69.70;51.60;;;16.20;1.00;;;;;;5112259;28;20438;-46
2023/03/22 08:59:07;;;;;;;73.47;51.13;;;16.30;1.00;;;;;;5111076;28;20096;-46
2023/03/22 09:01:34;;;;;;;68.72;49.50;;;16.30;1.00;;;;;;5112493;28;20463;-51
2023/03/22 09:04:01;;;;;;;69.45;51.28;;;16.40;1.00;;;;;;5110224;28;20019;-60
2023/03/22 09:06:27;;;;;;;70.40;49.45;;;16.40;1.00;;;;;;5112412;28;20147;-57
2023/03/22 09:08:53;;;;;;;65.97;51.65;;;16.50;1.00;;;;;;5110293;28;20055;-48
2023/03/22 09:11:19;;;;;;;66.95;50.55;;;16.50;1.00;;;;;;5112004;28;20081;-52
2023/03/22 09:13:46;;;;;;;71.13;50.78;;;16.60;1.00;;;;;;5112288;28;20417;-59
2023/03/22 09:16:12;;;;;;;68.50;50.20;;;16.50;1.00;;;;;;5110184;28;20126;-55
2023/03/22 09:18:39;;;;;;;70.50;49.08;;;16.60;1.00;;;;;;5109444;28;20570;-54
2023/03/22 09:21:06;;;;;;;65.50;50.58;;;16.70;1.00;;;;;;5100650;28;20154;-50
2023/03/22 09:23:33;;;;;;;69.18;50.63;;;16.70;1.00;;;;;;5104871;28;20152;-50
2023/03/22 09:26:04;;;;;;;69.68;52.97;;;16.70;1.00;;;;;;5093762;28;20038;-53
2023/03/22 09:28:30;;;;;;;71.57;51.90;;;16.80;1.00;;;;;;5096375;28;20197;-48
2023/03/22 09:31:04;;;;;;;69.63;48.58;;;16.80;1.00;;;;;;5119900;28;20431;-57
2023/03/22 09:33:30;;;;;;;66.38;50.00;;;16.80;1.00;;;;;;5113903;28;20522;-53
2023/03/22 09:35:56;;;;;;;66.57;50.28;;;16.90;1.00;;;;;;5115323;28;20032;-58
2023/03/22 09:38:23;;;;;;;72.18;51.60;;;17.00;1.00;;;;;;5114219;28;20023;-54
2023/03/22 09:41:01;;;;;;;67.53;48.78;;;17.00;1.00;;;;;;5116639;28;20119;-51
2023/03/22 09:43:30;;;;;;;62.47;47.13;;;17.10;1.00;;;;;;5118132;28;20111;-47
2023/03/22 09:45:56;;;;;;;70.88;49.72;;;17.10;1.00;;;;;;5090822;28;20023;-44
2023/03/22 09:48:31;;;;;;;69.25;49.42;;;17.20;1.00;;;;;;5102242;28;20028;-49
2023/03/22 09:51:00;;;;;;;63.03;48.03;;;17.20;1.00;;;;;;5121985;27;20046;-52
2023/03/22 09:53:28;;;;;;;64.00;48.42;;;17.30;1.00;;;;;;5117002;27;20030;-60
2023/03/22 09:55:57;;;;;;;66.65;49.03;;;17.30;1.00;;;;;;5116019;27;20046;-47
2023/03/22 09:58:28;;;;;;;62.55;47.40;;;17.40;1.00;;;;;;5126982;27;20020;-57
2023/03/22 10:01:20;;;;;;;67.50;49.53;;;17.50;1.00;;;;;;5123897;27;20027;-57
2023/03/22 10:03:48;;;;;;;69.55;49.03;;;17.50;1.00;;;;;;5100961;27;21580;-49
2023/03/22 10:06:22;;;;;;;65.10;47.97;;;17.60;1.00;;;;;;5116278;27;20031;-46
2023/03/22 10:09:12;;;;;;;62.85;48.90;;;17.60;1.00;;;;;;5117735;27;20460;-56
2023/03/22 10:12:03;;;;;;;65.80;50.13;;;17.70;1.00;;;;;;5124712;27;20038;-59
2023/03/22 10:14:35;;;;;;;63.08;48.50;;;17.70;1.00;;;;;;5115430;27;20489;-49
2023/03/22 10:17:07;;;;;;;61.28;47.40;;;17.80;1.00;;;;;;5120361;27;20028;-48
2023/03/22 10:19:57;;;;;;;69.32;48.67;;;17.80;1.00;;;;;;5109107;27;20071;-53
2023/03/22 10:22:29;;;;;;;59.40;47.38;;;17.90;1.00;;;;;;5090474;27;20067;-59
2023/03/22 10:24:55;;;;;;;62.20;47.15;;;17.90;1.00;;;;;;5128638;27;20035;-58
2023/03/22 10:27:25;;;;;;;58.85;44.72;;;18.00;1.00;;;;;;5105018;28;20403;-56
2023/03/22 10:30:07;;;;;;;60.55;44.30;;;18.00;1.00;;;;;;5104053;27;20028;-58
2023/03/22 10:32:42;;;;;;;57.42;44.20;;;18.10;1.00;;;;;;5104836;27;20101;-56
2023/03/22 10:35:12;;;;;;;;;;;18.20;1.00;;;;;;5105839;27;20492;-47
2023/03/22 10:37:39;;;;;;;55.30;41.40;;;18.20;1.00;;;;;;5104906;27;21793;-51
2023/03/22 10:40:06;;;;;;;54.25;39.75;;;18.30;1.00;;;;;;5092689;28;20149;-51
2023/03/22 10:42:35;;;;;;;50.75;38.85;;;18.30;1.00;;;;;;5102934;27;20020;-50
2023/03/22 10:45:13;;;;;;;50.42;38.15;;;18.40;1.00;;;;;;5099263;28;20393;-51
2023/03/22 10:47:59;;;;;;;48.03;36.20;;;18.40;1.00;;;;;;5108607;27;20047;-48
2023/03/22 10:50:32;;;;;;;46.10;35.95;;;18.40;1.00;;;;;;5102101;27;20123;-54
2023/03/22 10:53:22;;;;;;;47.80;35.95;;;18.50;1.00;;;;;;5105461;27;20074;-51
2023/03/22 10:55:47;;;;;;;52.67;37.65;;;18.50;1.00;;;;;;5107954;27;20035;-49
2023/03/22 10:58:16;;;;;;;84.15;39.42;;;18.60;1.00;;;;;;5108103;27;20031;-58
2023/03/22 11:00:54;;;;;;;68.43;32.67;;;18.60;1.00;;;;;;5099207;27;20059;-61
2023/03/22 11:03:25;;;;;;;102.28;36.67;;;18.70;1.00;;;;;;5101920;28;20020;-62
2023/03/22 11:06:01;;;;;;;61.28;31.27;;;18.70;1.00;;;;;;5102825;28;20560;-60
2023/03/22 11:08:27;;;;;;;41.20;29.63;;;18.80;1.00;;;;;;5100989;28;20265;-62
2023/03/22 11:10:57;;;;;;;47.50;29.02;;;18.90;1.00;;;;;;5082432;28;20442;-55
2023/03/22 11:13:24;;;;;;;40.70;26.23;;;19.00;1.00;;;;;;5102447;28;20036;-59
2023/03/22 11:16:01;;;;;;;35.15;26.02;;;19.00;1.00;;;;;;5094909;28;20036;-61
2023/03/22 11:18:33;;;;;;;38.17;25.60;;;19.10;1.00;;;;;;5099690;28;20435;-57
2023/03/22 11:21:11;;;;;;;33.22;24.40;;;19.10;1.00;;;;;;5098531;28;20103;-60
2023/03/22 11:23:40;;;;;;;33.75;25.40;;;19.30;1.00;;;;;;5095728;28;20031;-50
2023/03/22 11:26:13;;;;;;;35.97;25.42;;;19.30;1.00;;;;;;5098866;28;20464;-50
2023/03/22 11:28:51;;;;;;;36.50;26.60;;;19.40;1.00;;;;;;5101746;27;20138;-48
2023/03/22 11:31:19;;;;;;;36.53;24.30;;;19.40;1.00;;;;;;5104476;28;20050;-49
2023/03/22 11:33:58;;;;;;;32.63;24.45;;;19.50;1.00;;;;;;5101483;28;20050;-50
2023/03/22 11:36:25;;;;;;;35.88;27.60;;;19.50;1.00;;;;;;5096787;28;20067;-51
2023/03/22 11:39:04;;;;;;;35.53;26.60;;;19.60;1.00;;;;;;5104494;28;20109;-50
2023/03/22 11:41:35;;;;;;;35.60;25.73;;;19.70;1.00;;;;;;5099395;28;20036;-47
2023/03/22 11:44:21;;;;;;;32.53;25.95;;;19.70;1.00;;;;;;5101376;28;20504;-46
2023/03/22 11:47:01;;;;;;;36.85;26.60;;;19.70;1.00;;;;;;5099651;28;20036;-50
2023/03/22 11:49:43;;;;;;;35.47;28.45;;;19.80;1.00;;;;;;5098992;28;20028;-48
2023/03/22 11:52:15;;;;;;;34.97;25.85;;;19.70;1.00;;;;;;5100166;28;20023;-49
2023/03/22 11:54:41;;;;;;;32.38;25.52;;;19.80;1.00;;;;;;5100918;28;20399;-51
2023/03/22 11:57:17;;;;;;;36.72;26.73;;;19.90;1.00;;;;;;5100799;28;20087;-48
2023/03/22 12:00:10;;;;;;;24.40;21.45;;;20.10;1.00;;;;;;5100696;28;20023;-50
2023/03/22 12:02:56;;;;;;;34.97;25.65;;;20.20;1.00;;;;;;5089189;28;20035;-50
2023/03/22 12:05:26;;;;;;;32.33;26.27;;;20.30;1.00;;;;;;5090797;28;20085;-58
2023/03/22 12:08:05;;;;;;;36.30;27.48;;;20.40;1.00;;;;;;5083291;28;20370;-48
2023/03/22 12:10:43;;;;;;;34.17;27.23;;;20.40;1.00;;;;;;5107354;28;20020;-48
2023/03/22 12:13:43;;;;;;;33.08;24.98;;;20.60;1.00;;;;;;5098030;28;20455;-48
2023/03/22 12:16:13;;;;;;;32.92;25.88;;;20.80;1.00;;;;;;5076461;28;20035;-44
2023/03/22 12:19:01;;;;;;;30.80;24.15;;;20.80;1.00;;;;;;5101412;28;20070;-45
2023/03/22 12:21:28;;;;;;;34.25;26.63;;;20.90;1.00;;;;;;5106139;28;20036;-46
2023/03/22 12:23:58;;;;;;;31.15;26.35;;;20.90;1.00;;;;;;5090673;28;20036;-50
2023/03/22 12:26:26;;;;;;;36.03;25.88;;;21.10;1.00;;;;;;5109051;28;20102;-47
2023/03/22 12:28:54;;;;;;;36.10;24.90;;;21.20;1.00;;;;;;5107802;28;20473;-50
2023/03/22 12:31:37;;;;;;;35.13;24.17;;;21.30;1.00;;;;;;5110401;28;20023;-51
2023/03/22 12:34:07;;;;;;;28.15;21.63;;;21.50;1.00;;;;;;5110420;28;20060;-49
2023/03/22 12:37:06;;;;;;;26.33;19.83;;;21.70;1.00;;;;;;5105208;28;20134;-47
2023/03/22 12:39:41;;;;;;;26.48;18.00;;;21.90;1.00;;;;;;5065871;28;20514;-45
2023/03/22 12:42:25;;;;;;;25.23;17.60;;;22.10;1.00;;;;;;5105715;28;20038;-45
2023/03/22 12:44:57;;;;;;;25.02;16.60;;;22.40;1.00;;;;;;5107464;28;20015;-48
2023/03/22 12:47:41;;;;;;;31.10;21.85;;;25.70;1.00;;;;;;5104084;28;20015;-51
2023/03/22 12:50:41;;;;;;;26.17;19.73;;;28.40;99.90;;;;;;5104575;28;20064;-52
2023/03/22 12:53:15;;;;;;;24.35;17.45;;;31.10;99.90;;;;;;5092213;28;20035;-50